Time;durP1;ratioP1;P1;durP2;ratioP2;P2;SDS_P1;SDS_P2;PMS_P1;PMS_P2;Temp;Humidity;BMP_temperature;BMP_pressure;BME280_temperature;BME280_humidity;BME280_pressure;Samples;Min_cycle;Max_cycle;Signal;HPM_P1;HPM_P2
2021/05/24 00:00:17;;;;;;;7.60;4.10;;;;;;;20.91;63.82;101580.18;1757497;80;21051;-49
2021/05/24 00:02:44;;;;;;;5.05;4.28;;;;;;;20.90;63.91;101581.10;1715466;82;21066;-50
2021/05/24 00:05:17;;;;;;;4.47;3.80;;;;;;;20.90;64.01;101585.53;1695534;82;21178;-49
2021/05/24 00:07:44;;;;;;;;;;;;;;;20.88;64.11;101588.27;1604402;87;21609;-49
2021/05/24 00:10:13;;;;;;;5.97;3.87;;;;;;;20.88;64.14;101577.67;1598637;87;20505;-49
2021/05/24 00:12:46;;;;;;;4.95;3.87;;;;;;;21.18;63.20;101567.80;1598054;87;21122;-50
2021/05/24 00:15:10;;;;;;;5.30;4.55;;;;;;;21.22;62.99;101571.99;1588640;88;21185;-50
2021/05/24 00:17:39;;;;;;;9.35;5.03;;;;;;;21.20;63.05;101568.57;1592062;87;21134;-48
2021/05/24 00:20:09;;;;;;;5.53;3.83;;;;;;;21.20;63.10;101576.52;1596385;89;21102;-49
2021/05/24 00:22:35;;;;;;;5.17;3.80;;;;;;;21.22;63.02;101575.97;1600892;87;21656;-49
2021/05/24 00:25:06;;;;;;;3.85;3.52;;;;;;;21.22;62.96;101577.28;1602618;86;21152;-49
2021/05/24 00:27:33;;;;;;;8.00;3.90;;;;;;;21.20;62.98;101565.47;1596620;87;21118;-49
2021/05/24 00:30:00;;;;;;;4.95;3.98;;;;;;;21.18;63.04;101557.21;1599977;88;21098;-49
2021/05/24 00:32:27;;;;;;;7.08;4.28;;;;;;;21.17;63.05;101567.39;1608580;87;21612;-49
2021/05/24 00:34:56;;;;;;;5.08;4.55;;;;;;;21.15;63.17;101550.73;1602236;87;21178;-49
2021/05/24 00:37:23;;;;;;;6.37;3.85;;;;;;;21.14;63.22;101545.08;1595205;87;21703;-49
2021/05/24 00:39:50;;;;;;;4.92;3.95;;;;;;;21.14;63.24;101549.05;1603891;88;21140;-49
2021/05/24 00:42:18;;;;;;;4.35;3.85;;;;;;;21.13;63.33;101546.86;1603808;87;21657;-48
2021/05/24 00:44:46;;;;;;;5.72;4.17;;;;;;;21.14;63.37;101557.85;1599454;88;21103;-48
2021/05/24 00:47:13;;;;;;;11.55;4.35;;;;;;;21.16;63.37;101561.73;1601382;87;21079;-49
2021/05/24 00:49:44;;;;;;;4.72;4.17;;;;;;;21.16;63.34;101565.70;1591132;88;21101;-49
2021/05/24 00:52:08;;;;;;;6.10;4.17;;;;;;;21.18;63.32;101571.77;1597023;87;21151;-49
2021/05/24 00:54:35;;;;;;;6.08;4.80;;;;;;;21.19;63.21;101578.30;1595104;87;21585;-49
2021/05/24 00:57:01;;;;;;;4.78;3.90;;;;;;;21.20;63.23;101577.84;1609083;88;21118;-49
2021/05/24 00:59:28;;;;;;;6.53;4.10;;;;;;;21.22;63.23;101577.28;1589009;89;21133;-49
2021/05/24 01:01:55;;;;;;;7.30;4.28;;;;;;;21.22;63.15;101586.55;1603444;87;21258;-49
2021/05/24 01:04:22;;;;;;;5.00;3.83;;;;;;;21.21;63.09;101580.85;1604633;87;21240;-49
2021/05/24 01:06:50;;;;;;;5.92;4.10;;;;;;;21.21;63.08;101576.88;1685087;83;21125;-50
2021/05/24 01:09:18;;;;;;;5.90;4.50;;;;;;;21.21;63.03;101574.23;1684303;84;21068;-49
2021/05/24 01:11:50;;;;;;;6.50;4.00;;;;;;;21.20;63.05;101573.86;1755953;79;21083;-49
2021/05/24 01:14:17;;;;;;;4.92;4.20;;;;;;;21.19;63.04;101561.09;1781283;79;21032;-48
2021/05/24 01:16:49;;;;;;;4.37;3.98;;;;;;;21.18;63.05;101569.13;1769883;79;21061;-49
2021/05/24 01:19:18;;;;;;;5.00;4.47;;;;;;;21.18;63.03;101563.83;1760420;79;21016;-49
2021/05/24 01:21:46;;;;;;;8.48;4.40;;;;;;;21.17;63.07;101562.96;1769960;79;21033;-49
2021/05/24 01:24:13;;;;;;;4.22;3.45;;;;;;;21.18;62.95;101545.30;1768071;80;21027;-49
2021/05/24 01:26:40;;;;;;;7.00;4.30;;;;;;;21.17;62.94;101537.82;1776259;79;21015;-49
2021/05/24 01:29:07;;;;;;;5.12;4.40;;;;;;;21.17;62.97;101526.38;1769586;80;21036;-50
2021/05/24 01:31:33;;;;;;;4.97;4.20;;;;;;;21.17;62.93;101517.11;1772813;79;21017;-50
2021/05/24 01:34:01;;;;;;;6.42;4.30;;;;;;;21.16;62.91;101526.00;1770712;79;21063;-49
2021/05/24 01:36:28;;;;;;;5.53;4.08;;;;;;;21.15;62.92;101526.92;1776354;79;21547;-49
2021/05/24 01:38:55;;;;;;;6.42;3.87;;;;;;;21.14;62.95;101523.91;1783194;78;21065;-50
2021/05/24 01:41:22;;;;;;;5.30;3.80;;;;;;;21.13;62.93;101527.02;1744800;79;21036;-49
2021/05/24 01:43:48;;;;;;;6.47;3.80;;;;;;;21.14;62.88;101525.23;1777016;79;21050;-50
2021/05/24 01:46:15;;;;;;;4.97;4.05;;;;;;;21.14;62.79;101530.52;1774294;79;21658;-49
2021/05/24 01:48:43;;;;;;;5.17;4.15;;;;;;;21.13;62.78;101534.09;1779083;79;21039;-49
2021/05/24 01:51:10;;;;;;;11.25;4.20;;;;;;;21.14;62.65;101533.17;1785160;79;21585;-49
2021/05/24 01:53:37;;;;;;;7.90;3.90;;;;;;;21.13;62.57;101526.14;1775038;79;21032;-49
2021/05/24 01:56:05;;;;;;;10.70;4.40;;;;;;;20.85;63.36;101530.23;1783876;79;21064;-50
2021/05/24 01:58:32;;;;;;;5.67;3.87;;;;;;;20.75;63.66;101522.85;1765465;80;21587;-49
2021/05/24 02:01:05;;;;;;;6.70;3.72;;;;;;;20.72;63.66;101522.53;1775627;79;21611;-49
2021/05/24 02:03:32;;;;;;;8.83;3.87;;;;;;;20.70;63.63;101515.15;1586484;89;21094;-49
2021/05/24 02:06:01;;;;;;;4.15;3.55;;;;;;;20.68;63.57;101511.73;1631258;86;21641;-49
2021/05/24 02:08:29;;;;;;;6.33;3.52;;;;;;;20.67;63.57;101511.33;1631866;86;21580;-49
2021/05/24 02:10:56;;;;;;;4.60;4.15;;;;;;;20.66;63.56;101517.56;1641846;86;21087;-48
2021/05/24 02:13:27;;;;;;;6.87;3.72;;;;;;;20.66;63.54;101510.95;1639711;86;21106;-49
2021/05/24 02:15:54;;;;;;;6.22;3.95;;;;;;;20.65;63.45;101501.78;1641784;86;21212;-49
2021/05/24 02:18:21;;;;;;;5.15;3.80;;;;;;;20.66;63.39;101508.31;1641126;86;21101;-48
2021/05/24 02:20:48;;;;;;;8.30;3.62;;;;;;;20.65;63.29;101509.23;1641500;86;21137;-49
2021/05/24 02:23:14;;;;;;;4.40;3.12;;;;;;;20.64;63.23;101520.75;1643484;85;21135;-49
2021/05/24 02:25:41;;;;;;;6.58;3.55;;;;;;;20.64;63.23;101531.33;1607881;88;21101;-49
2021/05/24 02:28:08;;;;;;;7.47;4.10;;;;;;;20.65;63.19;101542.28;1642535;84;21082;-49
2021/05/24 02:30:36;;;;;;;8.50;3.98;;;;;;;20.66;63.18;101542.69;1640018;86;21075;-49
2021/05/24 02:33:04;;;;;;;4.37;3.60;;;;;;;20.69;63.15;101561.03;1657401;86;21089;-49
2021/05/24 02:35:30;;;;;;;3.65;3.30;;;;;;;20.73;63.11;101566.55;1623192;87;21143;-49
2021/05/24 02:37:58;;;;;;;5.83;4.03;;;;;;;20.77;62.99;101569.42;1636214;86;21168;-49
2021/05/24 02:40:25;;;;;;;4.30;3.62;;;;;;;20.80;62.90;101570.61;1640226;86;21663;-49
2021/05/24 02:42:52;;;;;;;4.70;3.60;;;;;;;20.83;62.81;101571.78;1644425;86;21113;-48
2021/05/24 02:45:19;;;;;;;4.42;3.50;;;;;;;20.85;62.71;101576.98;1652162;86;21073;-48
2021/05/24 02:47:46;;;;;;;4.95;3.20;;;;;;;20.88;62.66;101577.67;1636808;87;21071;-48
2021/05/24 02:50:21;;;;;;;7.62;3.77;;;;;;;20.91;62.60;101569.59;1635836;86;21693;-48
2021/05/24 02:52:47;;;;;;;6.47;4.03;;;;;;;20.92;62.52;101559.39;1639972;84;21073;-49
2021/05/24 02:55:14;;;;;;;5.58;3.98;;;;;;;20.94;62.45;101565.91;1665078;85;21623;-48
2021/05/24 02:57:41;;;;;;;5.97;3.55;;;;;;;20.94;62.25;101568.10;1708079;82;21112;-49
2021/05/24 03:00:11;;;;;;;4.83;3.90;;;;;;;20.95;62.12;101583.05;1738453;80;21053;-49
2021/05/24 03:02:45;;;;;;;4.50;3.55;;;;;;;20.96;62.00;101599.30;1782884;79;21036;-49
2021/05/24 03:05:09;;;;;;;6.67;3.75;;;;;;;20.96;61.85;101578.14;1781303;79;21065;-49
2021/05/24 03:07:37;;;;;;;7.30;3.70;;;;;;;20.97;61.86;101581.19;1780290;79;21056;-48
2021/05/24 03:10:05;;;;;;;6.80;3.72;;;;;;;20.97;61.79;101594.41;1772274;80;21088;-49
2021/05/24 03:12:31;;;;;;;7.80;4.12;;;;;;;20.98;61.85;101601.41;1789110;79;21594;-49
2021/05/24 03:14:58;;;;;;;6.72;4.28;;;;;;;21.00;61.84;101595.56;1768516;80;21025;-49
2021/05/24 03:17:24;;;;;;;8.33;3.95;;;;;;;21.02;61.90;101605.64;1782546;80;21025;-49
2021/05/24 03:19:51;;;;;;;7.00;4.20;;;;;;;21.02;61.97;101602.98;1770206;79;21059;-49
2021/05/24 03:22:18;;;;;;;6.17;3.83;;;;;;;21.04;62.12;101605.09;1769743;80;21559;-49
2021/05/24 03:24:45;;;;;;;6.00;4.10;;;;;;;21.08;62.15;101602.30;1780534;79;21059;-48
2021/05/24 03:27:11;;;;;;;7.42;4.20;;;;;;;21.11;62.19;101610.92;1761718;80;21578;-49
2021/05/24 03:29:38;;;;;;;8.20;4.55;;;;;;;21.17;62.11;101607.09;1781112;79;21048;-48
2021/05/24 03:32:07;;;;;;;6.92;4.50;;;;;;;21.24;62.18;101603.20;1780896;79;21024;-49
2021/05/24 03:34:34;;;;;;;7.62;4.17;;;;;;;21.36;62.53;101586.67;1758811;80;21091;-48
2021/05/24 03:37:00;;;;;;;6.97;4.40;;;;;;;21.55;62.05;101590.05;1779315;79;21063;-48
2021/05/24 03:39:27;;;;;;;6.33;3.90;;;;;;;21.73;61.71;101598.32;1773882;80;21575;-49
2021/05/24 03:41:54;;;;;;;4.65;4.00;;;;;;;21.91;61.77;101598.66;1772803;79;21135;-48
2021/05/24 03:44:22;;;;;;;6.58;4.58;;;;;;;22.17;61.26;101600.73;1778108;79;21084;-49
2021/05/24 03:46:52;;;;;;;9.40;3.98;;;;;;;22.44;60.40;101600.96;1773927;79;21139;-48
2021/05/24 03:49:19;;;;;;;8.30;4.28;;;;;;;22.66;59.71;101604.11;1780691;79;21086;-48
2021/05/24 03:51:46;;;;;;;9.78;4.45;;;;;;;22.88;59.13;101607.66;1766625;80;21060;-48
2021/05/24 03:54:12;;;;;;;7.22;3.92;;;;;;;23.12;58.44;101600.91;1782590;79;21095;-50
2021/05/24 03:56:40;;;;;;;8.78;4.15;;;;;;;23.34;57.76;101602.66;1780937;80;21040;-48
2021/05/24 03:59:07;;;;;;;5.08;3.50;;;;;;;23.55;57.02;101608.45;1766561;79;21057;-49
2021/05/24 04:01:37;;;;;;;9.03;4.05;;;;;;;23.71;55.97;101607.41;1775141;79;21056;-49
2021/05/24 04:04:06;;;;;;;7.03;3.90;;;;;;;23.77;55.30;101613.66;1774729;79;21048;-49
2021/05/24 04:06:34;;;;;;;7.80;3.27;;;;;;;23.75;54.88;101627.52;1759941;80;21678;-49
2021/05/24 04:09:04;;;;;;;6.85;3.95;;;;;;;23.71;54.65;101643.75;1800603;79;21100;-49
2021/05/24 04:11:30;;;;;;;7.75;3.75;;;;;;;23.65;54.66;101653.43;1737317;82;21955;-49
2021/05/24 04:13:57;;;;;;;5.05;3.72;;;;;;;23.58;54.68;101659.59;1734623;82;21072;-49
2021/05/24 04:16:24;;;;;;;6.72;3.52;;;;;;;23.51;54.77;101670.70;1738635;81;21607;-49
2021/05/24 04:18:51;;;;;;;6.22;3.47;;;;;;;23.45;54.94;101678.58;1733841;81;21049;-48
2021/05/24 04:21:18;;;;;;;6.92;3.90;;;;;;;23.40;55.48;101666.03;1733136;81;21049;-49
2021/05/24 04:23:45;;;;;;;6.20;4.25;;;;;;;23.36;56.06;101626.00;1737447;81;21057;-49
2021/05/24 04:26:14;;;;;;;12.33;4.85;;;;;;;23.30;56.33;101636.97;1733805;81;21092;-49
2021/05/24 04:28:42;;;;;;;8.50;3.47;;;;;;;23.24;55.88;101666.55;1705137;83;21030;-48
2021/05/24 04:31:08;;;;;;;8.50;4.30;;;;;;;23.17;55.71;101698.37;1706916;83;21595;-49
2021/05/24 04:33:35;;;;;;;11.70;4.08;;;;;;;23.08;55.76;101716.20;1711103;82;21155;-48
2021/05/24 04:36:03;;;;;;;8.65;4.87;;;;;;;22.97;56.15;101741.17;1704339;82;21123;-49
2021/05/24 04:38:30;;;;;;;8.13;3.95;;;;;;;22.87;56.77;101742.64;1769294;80;21092;-48
2021/05/24 04:40:57;;;;;;;12.13;5.30;;;;;;;22.78;57.24;101746.67;1771689;79;21057;-48
2021/05/24 04:43:28;;;;;;;8.15;4.17;;;;;;;22.67;57.49;101718.55;1782396;79;21036;-49
2021/05/24 04:45:52;;;;;;;10.15;4.62;;;;;;;22.58;57.89;101723.94;1767392;80;21128;-49
2021/05/24 04:48:18;;;;;;;6.78;4.67;;;;;;;22.52;58.34;101724.21;1774833;79;21535;-49
2021/05/24 04:50:46;;;;;;;10.03;5.28;;;;;;;22.46;58.78;101734.33;1783457;79;21048;-49
2021/05/24 04:53:12;;;;;;;7.10;4.97;;;;;;;22.42;59.13;101746.89;1774795;79;21496;-49
2021/05/24 04:55:39;;;;;;;9.98;5.60;;;;;;;22.39;59.59;101749.73;1776628;79;21021;-49
2021/05/24 04:58:06;;;;;;;6.83;4.47;;;;;;;22.38;60.10;101749.81;1784544;79;21063;-49
2021/05/24 05:00:33;;;;;;;7.95;4.30;;;;;;;22.34;60.48;101761.04;1770067;79;21575;-49
2021/05/24 05:03:00;;;;;;;6.65;4.20;;;;;;;22.32;60.80;101748.34;1787686;79;21135;-49
2021/05/24 05:05:27;;;;;;;8.93;3.95;;;;;;;22.29;61.08;101729.95;1774618;80;21048;-48
2021/05/24 05:07:54;;;;;;;4.83;3.72;;;;;;;22.29;61.24;101723.80;1770110;80;21044;-48
2021/05/24 05:10:22;;;;;;;6.30;3.47;;;;;;;22.28;61.31;101716.77;1769900;80;21571;-49
2021/05/24 05:12:48;;;;;;;5.90;3.15;;;;;;;22.27;61.24;101710.63;1773332;79;21017;-48
2021/05/24 05:15:16;;;;;;;4.67;3.17;;;;;;;22.27;61.19;101702.67;1779859;79;21070;-49
2021/05/24 05:17:42;;;;;;;4.30;3.35;;;;;;;22.28;61.14;101701.72;1774262;80;21041;-48
2021/05/24 05:20:11;;;;;;;4.62;3.22;;;;;;;22.29;60.92;101706.09;1765888;79;21043;-48
2021/05/24 05:22:38;;;;;;;3.42;2.50;;;;;;;22.30;60.59;101713.09;1763689;80;21610;-49
2021/05/24 05:25:06;;;;;;;2.65;2.45;;;;;;;22.30;60.07;101709.58;1773570;80;21057;-49
2021/05/24 05:27:33;;;;;;;4.72;3.02;;;;;;;22.27;60.03;101697.38;1776640;79;21028;-48
2021/05/24 05:30:00;;;;;;;3.37;2.80;;;;;;;22.29;60.06;101702.12;1777778;79;21064;-49
2021/05/24 05:32:27;;;;;;;3.75;3.40;;;;;;;22.29;59.95;101703.45;1779831;79;21056;-48
2021/05/24 05:34:54;;;;;;;2.90;2.60;;;;;;;22.31;59.76;101708.19;1775820;80;21052;-49
2021/05/24 05:37:21;;;;;;;4.17;3.47;;;;;;;22.31;59.47;101701.56;1776376;79;21567;-48
2021/05/24 05:39:53;;;;;;;3.10;2.80;;;;;;;22.32;59.19;101699.28;1776782;79;21075;-49
2021/05/24 05:42:17;;;;;;;3.52;2.90;;;;;;;22.32;59.16;101708.56;1792771;79;21614;-49
2021/05/24 05:44:44;;;;;;;3.62;2.70;;;;;;;22.33;59.18;101727.98;1780827;79;21072;-48
2021/05/24 05:47:10;;;;;;;5.47;3.52;;;;;;;22.33;59.24;101734.62;1775507;79;21083;-48
2021/05/24 05:49:37;;;;;;;4.70;3.25;;;;;;;22.33;59.36;101736.80;1726414;82;21611;-48
2021/05/24 05:52:05;;;;;;;6.15;3.85;;;;;;;22.35;59.38;101724.31;1736072;81;21076;-49
2021/05/24 05:54:32;;;;;;;3.37;3.08;;;;;;;22.36;59.38;101739.27;1732384;81;21580;-49
2021/05/24 05:56:59;;;;;;;4.45;3.02;;;;;;;22.36;59.44;101744.58;1734670;81;21052;-49
2021/05/24 05:59:26;;;;;;;3.95;3.15;;;;;;;22.38;59.49;101736.06;1746923;81;21065;-47
2021/05/24 06:01:53;;;;;;;2.87;2.58;;;;;;;22.40;59.57;101754.56;1732564;81;21059;-48
2021/05/24 06:04:19;;;;;;;3.95;2.90;;;;;;;22.41;59.60;101755.80;1699389;83;21048;-48
2021/05/24 06:06:46;;;;;;;5.10;2.90;;;;;;;22.43;59.61;101760.55;1722158;82;21029;-47
2021/05/24 06:09:13;;;;;;;5.67;2.77;;;;;;;22.46;59.46;101766.99;1711680;82;21148;-49
2021/05/24 06:11:40;;;;;;;3.45;2.70;;;;;;;22.48;59.49;101775.72;1704753;82;21111;-48
2021/05/24 06:14:07;;;;;;;10.35;4.58;;;;;;;22.50;59.28;101777.81;1766999;79;21008;-48
2021/05/24 06:16:34;;;;;;;9.35;3.67;;;;;;;22.52;59.17;101782.56;1714921;82;21104;-49
2021/05/24 06:19:01;;;;;;;3.87;2.42;;;;;;;22.56;59.13;101788.12;1715782;82;21092;-49
2021/05/24 06:21:28;;;;;;;5.28;2.60;;;;;;;22.56;59.18;101785.47;1728708;81;21120;-49
2021/05/24 06:23:54;;;;;;;5.60;2.80;;;;;;;22.59;59.01;101789.30;1706094;82;21084;-49
2021/05/24 06:26:21;;;;;;;2.42;2.22;;;;;;;22.61;58.83;101792.72;1764381;79;21095;-47
2021/05/24 06:28:49;;;;;;;2.30;2.10;;;;;;;22.65;58.89;101796.91;1771536;80;21065;-47
2021/05/24 06:31:16;;;;;;;2.35;2.15;;;;;;;22.68;58.72;101790.59;1766183;80;21504;-47
2021/05/24 06:33:43;;;;;;;2.55;2.10;;;;;;;22.74;58.94;101802.65;1777853;80;21147;-50
2021/05/24 06:36:10;;;;;;;2.98;2.30;;;;;;;22.81;58.65;101810.66;1763560;80;21073;-48
2021/05/24 06:38:37;;;;;;;2.80;2.50;;;;;;;22.88;58.65;101814.67;1783063;79;21021;-48
2021/05/24 06:41:04;;;;;;;2.90;2.25;;;;;;;22.97;58.36;101812.84;1765587;80;21055;-48
2021/05/24 06:43:31;;;;;;;3.80;2.27;;;;;;;23.09;58.43;101820.10;1779377;79;21049;-47
2021/05/24 06:45:59;;;;;;;2.35;2.20;;;;;;;23.20;58.14;101820.36;1785527;79;21075;-47
2021/05/24 06:48:25;;;;;;;2.20;2.00;;;;;;;23.36;58.29;101825.20;1725003;81;21057;-48
2021/05/24 06:50:52;;;;;;;8.03;2.27;;;;;;;23.52;58.16;101822.48;1712890;82;21066;-47
2021/05/24 06:53:19;;;;;;;2.22;2.00;;;;;;;23.70;57.68;101826.25;1770330;80;21057;-48
2021/05/24 06:55:46;;;;;;;3.70;2.20;;;;;;;23.89;56.99;101816.23;1771998;80;21189;-48
2021/05/24 06:58:12;;;;;;;3.47;2.12;;;;;;;24.08;56.54;101818.20;1773840;80;21781;-48
2021/05/24 07:00:39;;;;;;;2.02;1.82;;;;;;;24.29;56.04;101825.34;1777841;79;21419;-48
2021/05/24 07:03:06;;;;;;;3.22;1.92;;;;;;;24.47;55.57;101828.18;1778643;79;21096;-48
2021/05/24 07:05:33;;;;;;;1.80;1.70;;;;;;;24.68;55.09;101829.97;1771142;80;21548;-48
2021/05/24 07:08:00;;;;;;;12.33;2.00;;;;;;;24.88;54.11;101835.76;1771949;79;21061;-48
2021/05/24 07:10:28;;;;;;;7.17;2.20;;;;;;;25.06;53.47;101843.02;1761287;80;21021;-49
2021/05/24 07:12:54;;;;;;;2.00;1.70;;;;;;;25.20;53.03;101848.80;1761790;80;21630;-48
2021/05/24 07:15:21;;;;;;;3.37;1.90;;;;;;;25.29;52.78;101849.05;1773068;79;21103;-48
2021/05/24 07:17:48;;;;;;;2.95;2.40;;;;;;;25.38;51.82;101853.78;1765933;79;21069;-49
2021/05/24 07:20:15;;;;;;;1.70;1.60;;;;;;;25.43;51.69;101859.67;1770499;80;21024;-48
2021/05/24 07:22:42;;;;;;;4.78;1.67;;;;;;;25.42;51.11;101865.97;1770597;79;21048;-48
2021/05/24 07:25:11;;;;;;;2.75;1.20;;;;;;;25.39;50.90;101863.46;1770629;79;21044;-48
2021/05/24 07:27:39;;;;;;;2.13;1.10;;;;;;;25.36;50.09;101871.68;1786237;79;21056;-48
2021/05/24 07:30:08;;;;;;;3.85;1.30;;;;;;;25.31;48.07;101875.11;1797854;79;21055;-48
2021/05/24 07:32:35;;;;;;;0.80;0.80;;;;;;;25.19;47.53;101884.37;1773909;80;21033;-48
2021/05/24 07:35:04;;;;;;;2.52;0.88;;;;;;;25.06;47.34;101888.80;1769557;79;21080;-48
2021/05/24 07:37:31;;;;;;;0.95;0.90;;;;;;;24.91;47.61;101893.29;1775222;79;21076;-48
2021/05/24 07:39:58;;;;;;;1.12;0.90;;;;;;;24.80;47.92;101901.09;1770718;79;21058;-48
2021/05/24 07:42:25;;;;;;;1.52;0.85;;;;;;;24.68;48.13;101912.47;1730567;82;21076;-48
2021/05/24 07:44:53;;;;;;;4.87;0.68;;;;;;;24.57;46.81;101904.28;1714772;82;21159;-49
2021/05/24 07:47:20;;;;;;;1.85;0.65;;;;;;;24.45;47.48;101907.23;1711690;82;21607;-48
2021/05/24 07:49:46;;;;;;;1.75;0.82;;;;;;;24.36;47.10;101914.94;1710305;82;21118;-48
2021/05/24 07:52:14;;;;;;;2.08;0.80;;;;;;;24.23;46.76;101908.17;1729853;82;21049;-49
2021/05/24 07:54:41;;;;;;;4.00;0.70;;;;;;;24.11;46.93;101911.08;1716599;82;21035;-48
2021/05/24 07:57:09;;;;;;;2.40;0.65;;;;;;;24.06;47.46;101915.83;1709859;82;21092;-49
2021/05/24 07:59:35;;;;;;;3.92;0.82;;;;;;;24.03;48.60;101914.66;1705483;82;21048;-48
2021/05/24 08:02:03;;;;;;;2.37;0.70;;;;;;;24.03;48.67;101925.30;1719027;82;21076;-49
2021/05/24 08:04:30;;;;;;;2.22;0.70;;;;;;;24.06;48.75;101929.59;1709028;82;21923;-48
2021/05/24 08:06:57;;;;;;;3.90;0.60;;;;;;;24.06;49.18;101931.78;1712436;82;21064;-48
2021/05/24 08:09:24;;;;;;;2.05;1.02;;;;;;;24.05;48.86;101930.05;1708512;82;21057;-48
2021/05/24 08:11:51;;;;;;;1.60;0.65;;;;;;;24.02;48.87;101932.88;1709402;82;21080;-49
2021/05/24 08:14:18;;;;;;;2.62;0.70;;;;;;;23.99;48.76;101929.05;1711973;82;21009;-49
2021/05/24 08:16:48;;;;;;;11.18;2.00;;;;;;;24.00;48.85;101933.44;1765735;79;21076;-49
2021/05/24 08:19:16;;;;;;;4.45;0.90;;;;;;;24.02;49.10;101939.52;1793558;79;21102;-49
2021/05/24 08:21:49;;;;;;;3.02;0.85;;;;;;;24.07;49.15;101944.11;1770946;79;21043;-48
2021/05/24 08:24:16;;;;;;;1.37;0.78;;;;;;;24.07;48.98;101940.12;1710857;82;21053;-48
2021/05/24 08:26:44;;;;;;;1.98;0.70;;;;;;;24.06;49.37;101942.42;1748409;81;21181;-49
2021/05/24 08:29:10;;;;;;;0.68;0.50;;;;;;;24.09;49.45;101944.88;1735284;81;21157;-48
2021/05/24 08:31:40;;;;;;;3.20;0.55;;;;;;;24.08;49.10;101940.98;1728549;81;21064;-49
2021/05/24 08:34:07;;;;;;;1.60;0.88;;;;;;;24.07;49.22;101942.78;1757399;79;21519;-48
2021/05/24 08:36:35;;;;;;;1.65;0.62;;;;;;;24.07;49.13;101942.78;1718241;82;21104;-49
2021/05/24 08:39:04;;;;;;;4.95;0.62;;;;;;;24.11;48.89;101956.28;1732215;80;21053;-49
2021/05/24 08:41:33;;;;;;;5.65;0.70;;;;;;;24.12;47.45;101954.02;1718934;82;21029;-48
2021/05/24 08:44:01;;;;;;;3.17;0.65;;;;;;;24.18;48.13;101964.30;1733704;80;21096;-48
2021/05/24 08:46:28;;;;;;;6.47;0.90;;;;;;;24.18;47.28;101965.63;1720992;81;21505;-49
2021/05/24 08:48:54;;;;;;;2.52;0.70;;;;;;;24.18;47.86;101968.28;1740404;81;21072;-48
2021/05/24 08:51:22;;;;;;;1.45;0.70;;;;;;;24.20;48.43;101967.72;1720828;82;21128;-49
2021/05/24 08:53:49;;;;;;;1.80;0.72;;;;;;;24.19;48.16;101976.63;1711831;80;21091;-49
2021/05/24 08:56:16;;;;;;;1.70;0.65;;;;;;;24.13;47.99;101969.02;1724708;82;21018;-48
2021/05/24 08:58:43;;;;;;;1.77;0.82;;;;;;;24.11;47.96;101972.73;1746737;81;21083;-48
2021/05/24 09:01:10;;;;;;;4.75;1.55;;;;;;;24.13;47.89;101974.33;1723830;82;21713;-49
2021/05/24 09:03:37;;;;;;;1.10;0.60;;;;;;;24.18;47.32;101982.91;1727439;81;21073;-49
2021/05/24 09:06:07;;;;;;;1.82;0.85;;;;;;;24.23;47.46;101976.00;1721867;82;21603;-48
2021/05/24 09:08:40;;;;;;;1.85;0.75;;;;;;;24.30;47.14;101980.48;1733190;81;21048;-48
2021/05/24 09:11:26;;;;;;;1.85;0.80;;;;;;;24.36;47.52;101970.80;1739903;81;21052;-49
2021/05/24 09:13:54;;;;;;;2.87;0.75;;;;;;;24.43;47.12;101970.80;1701034;83;21115;-48
2021/05/24 09:16:32;;;;;;;1.32;0.65;;;;;;;24.50;46.74;101971.69;1701734;82;21035;-49
2021/05/24 09:19:20;;;;;;;1.55;0.60;;;;;;;24.59;46.00;101974.23;1702363;82;21571;-48
2021/05/24 09:21:59;;;;;;;3.92;1.30;;;;;;;24.62;46.06;101979.39;1700656;83;21600;-47
2021/05/24 09:24:37;;;;;;;0.95;0.68;;;;;;;24.65;46.08;101972.06;1708241;83;21056;-48
2021/05/24 09:27:07;;;;;;;0.62;0.40;;;;;;;24.66;46.24;101983.58;1631715;87;21060;-48
2021/05/24 09:29:43;;;;;;;3.20;0.75;;;;;;;24.63;45.97;101985.08;1592135;89;21051;-49
2021/05/24 09:32:20;;;;;;;3.25;0.78;;;;;;;24.58;45.77;101984.52;1556246;90;21131;-49
2021/05/24 09:34:49;;;;;;;3.08;0.80;;;;;;;24.56;45.44;101979.77;1522464;93;21164;-48
2021/05/24 09:37:17;;;;;;;1.72;0.80;;;;;;;24.52;44.98;101976.91;1535029;92;21184;-49
2021/05/24 09:39:44;;;;;;;1.07;0.60;;;;;;;24.53;45.16;101982.13;1524983;92;21184;-49
2021/05/24 09:42:13;;;;;;;0.90;0.68;;;;;;;24.56;45.20;101983.29;1524208;92;21730;-50
2021/05/24 09:44:53;;;;;;;2.10;0.70;;;;;;;24.57;44.61;101984.12;1582099;89;21063;-49
2021/05/24 09:47:37;;;;;;;1.55;0.70;;;;;;;24.63;44.13;101987.74;1586266;88;21103;-48
2021/05/24 09:50:19;;;;;;;4.35;0.80;;;;;;;24.63;44.13;101987.74;1573734;89;21060;-48
2021/05/24 09:52:48;;;;;;;3.42;1.05;;;;;;;24.68;43.87;101987.00;1556689;90;21176;-48
2021/05/24 09:55:20;;;;;;;3.47;0.60;;;;;;;25.04;42.95;101980.75;1542394;92;21091;-48
2021/05/24 09:57:56;;;;;;;4.03;0.70;;;;;;;25.10;42.79;101995.02;1516201;93;21115;-49
2021/05/24 10:00:38;;;;;;;2.05;0.80;;;;;;;25.19;43.01;101978.47;1486513;95;21155;-49
2021/05/24 10:02:59;;;;;;;1.40;0.62;;;;;;;25.20;42.92;101977.53;1505607;94;21131;-48
2021/05/24 10:05:43;;;;;;;1.57;0.60;;;;;;;25.22;41.89;101975.63;1489199;95;21158;-49
2021/05/24 10:08:10;;;;;;;1.30;0.57;;;;;;;25.26;41.45;101981.60;1510112;94;21112;-48
2021/05/24 10:10:37;;;;;;;4.17;0.57;;;;;;;25.34;41.50;101972.17;1512713;94;21137;-49
2021/05/24 10:13:04;;;;;;;2.65;0.60;;;;;;;25.38;39.67;101971.02;1506397;94;21133;-48
2021/05/24 10:15:33;;;;;;;0.90;0.47;;;;;;;25.42;39.28;101969.91;1506491;94;21103;-49
2021/05/24 10:18:02;;;;;;;3.58;0.65;;;;;;;25.46;39.95;101966.08;1497975;92;21128;-49
2021/05/24 10:20:30;;;;;;;2.15;0.60;;;;;;;25.52;40.52;101969.68;1537129;93;21591;-49
2021/05/24 10:22:58;;;;;;;0.70;0.47;;;;;;;25.59;40.09;101971.48;1535846;89;21140;-49
2021/05/24 10:25:24;;;;;;;1.00;0.60;;;;;;;25.65;40.27;101970.60;1634234;86;21125;-49
2021/05/24 10:27:51;;;;;;;2.22;0.60;;;;;;;25.72;40.48;101975.89;1624651;87;21312;-49
2021/05/24 10:30:19;;;;;;;1.35;0.70;;;;;;;25.74;40.96;101969.98;1650072;85;21059;-49
2021/05/24 10:33:00;;;;;;;0.60;0.60;;;;;;;25.73;41.69;101976.75;1661981;84;21079;-48
2021/05/24 10:35:40;;;;;;;0.68;0.42;;;;;;;25.67;41.39;101966.03;1661884;84;21099;-49
2021/05/24 10:38:33;;;;;;;0.70;0.53;;;;;;;25.58;42.05;101958.62;1653602;84;21123;-49
2021/05/24 10:41:09;;;;;;;2.15;0.57;;;;;;;25.52;41.85;101967.02;1673439;84;21096;-49
2021/05/24 10:43:53;;;;;;;2.15;0.60;;;;;;;25.46;41.75;101964.75;1670306;84;21047;-49
2021/05/24 10:46:31;;;;;;;3.22;1.00;;;;;;;25.38;41.71;101967.49;1672094;84;21637;-48
2021/05/24 10:49:27;;;;;;;1.20;0.75;;;;;;;25.24;41.58;101976.37;1692133;82;21526;-48
2021/05/24 10:52:03;;;;;;;0.93;0.50;;;;;;;25.17;42.20;101987.50;1752913;80;21072;-49
2021/05/24 10:54:34;;;;;;;2.55;0.80;;;;;;;25.18;42.84;101979.91;1718197;82;21049;-49
2021/05/24 10:57:06;;;;;;;1.40;0.90;;;;;;;25.23;42.47;101985.31;1713347;83;21574;-49
2021/05/24 10:59:45;;;;;;;6.85;1.17;;;;;;;25.28;42.94;102001.88;1707926;83;21063;-49
2021/05/24 11:02:26;;;;;;;5.85;1.32;;;;;;;25.33;43.55;102003.75;1697172;83;21621;-48
2021/05/24 11:05:10;;;;;;;1.00;0.90;;;;;;;25.40;43.09;102013.55;1702549;83;21165;-49
2021/05/24 11:07:48;;;;;;;1.20;0.90;;;;;;;25.41;42.94;102012.14;1705564;83;21067;-48
2021/05/24 11:10:20;;;;;;;3.70;1.07;;;;;;;25.42;42.54;102016.53;1703686;83;21103;-49
2021/05/24 11:12:51;;;;;;;2.00;0.98;;;;;;;25.42;41.94;102017.87;1692003;84;21638;-48
2021/05/24 11:15:31;;;;;;;1.22;0.80;;;;;;;25.39;41.97;102011.35;1674582;84;21067;-49
2021/05/24 11:18:04;;;;;;;1.45;1.00;;;;;;;25.34;41.88;102013.47;1673610;84;21636;-48
2021/05/24 11:21:04;;;;;;;2.20;1.57;;;;;;;25.29;40.97;102014.22;1664312;85;21643;-48
2021/05/24 11:23:48;;;;;;;1.90;1.77;;;;;;;25.30;40.46;102013.29;1591962;87;21075;-49
2021/05/24 11:26:29;;;;;;;4.20;2.33;;;;;;;25.33;40.83;102007.75;1601586;88;21088;-48
2021/05/24 11:29:18;;;;;;;4.10;1.55;;;;;;;25.36;40.94;102018.23;1610244;88;21682;-48
2021/05/24 11:31:56;;;;;;;2.00;1.30;;;;;;;25.36;40.30;102006.23;1617448;88;21080;-49